Terminal Aerodrome Forecast
Issued by NWS Sterling, VA

Current Version | Previous Version | Text Only | Print | Product List | Glossary Off
Versions: 1 2 3 4 5 6 7 8 9 10 11 12 13 14 15 16 17 18 19 20 21 22 23

000
FTUS41 KLWX 220520
TAFIAD
TAF
KIAD 220520Z 2206/2312 VRB03KT P6SM SCT060 BKN080
     FM221500 19008KT P6SM BKN060 BKN200
     FM221800 19008G16KT P6SM SCT200
     FM230600 18008KT 5SM -SHRA OVC015
     FM230900 17011KT 3SM -SHRA OVC008 WS020/19040KT=

USA.gov is the U.S. government's official web portal to all federal, state and local government web resources and services.